createdAt,value
2022-08-11T00:01:19.219Z,2.30
2022-08-11T00:04:21.881Z,2.58
2022-08-11T00:06:53.070Z,2.83
2022-08-11T00:09:33.200Z,2.38
2022-08-11T00:12:25.178Z,2.28
2022-08-11T00:15:02.150Z,2.17
2022-08-11T00:17:34.761Z,2.10
2022-08-11T00:20:16.631Z,2.30
2022-08-11T00:22:48.836Z,2.25
2022-08-11T00:25:26.529Z,2.13
2022-08-11T00:27:55.906Z,2.60
2022-08-11T00:30:25.084Z,2.40
2022-08-11T00:32:57.412Z,2.40
2022-08-11T00:35:51.481Z,2.42
2022-08-11T00:38:27.243Z,2.42
2022-08-11T00:41:40.253Z,2.50
2022-08-11T00:44:46.936Z,2.60
2022-08-11T00:47:52.435Z,3.10
2022-08-11T00:53:13.803Z,3.65
2022-08-11T00:56:24.914Z,3.53
2022-08-11T00:59:35.823Z,4.82
2022-08-11T01:02:18.454Z,5.65
2022-08-11T01:05:14.268Z,6.40
2022-08-11T01:08:16.709Z,6.30
2022-08-11T01:10:54.612Z,5.65
2022-08-11T01:13:24.353Z,5.22
2022-08-11T01:16:12.138Z,5.20
2022-08-11T01:19:02.467Z,4.75
2022-08-11T01:21:52.734Z,5.07
2022-08-11T01:25:21.671Z,3.53
2022-08-11T01:28:17.711Z,2.97
2022-08-11T01:31:12.256Z,3.10
2022-08-11T01:33:47.343Z,2.20
2022-08-11T01:36:43.630Z,2.25
2022-08-11T01:39:41.317Z,1.80
2022-08-11T01:42:52.060Z,1.90
2022-08-11T01:45:43.158Z,2.20
2022-08-11T01:48:33.180Z,2.40
2022-08-11T01:51:27.113Z,2.22
2022-08-11T01:54:28.344Z,2.25
2022-08-11T01:57:00.552Z,2.28
2022-08-11T01:59:49.628Z,1.85
2022-08-11T02:02:49.424Z,1.67
2022-08-11T02:05:21.940Z,1.80
2022-08-11T02:08:33.415Z,1.60
2022-08-11T02:11:35.861Z,1.60
2022-08-11T02:14:28.977Z,1.30
2022-08-11T02:17:48.551Z,1.33
2022-08-11T02:20:54.296Z,1.30
2022-08-11T02:24:07.016Z,1.45
2022-08-11T02:26:47.933Z,1.00
2022-08-11T02:30:11.063Z,1.10
2022-08-11T02:33:07.723Z,0.95
2022-08-11T02:35:46.599Z,1.00
2022-08-11T02:38:58.068Z,1.10
2022-08-11T02:42:03.327Z,1.30
2022-08-11T02:45:09.738Z,1.40
2022-08-11T02:48:17.986Z,1.15
2022-08-11T02:51:22.007Z,1.30
2022-08-11T02:54:24.356Z,1.00
2022-08-11T02:56:58.306Z,1.42
2022-08-11T02:59:54.193Z,3.03
2022-08-11T03:02:53.855Z,1.67
2022-08-11T03:05:28.462Z,1.38
2022-08-11T03:08:07.231Z,1.65
2022-08-11T03:11:08.103Z,1.27
2022-08-11T03:14:03.191Z,1.50
2022-08-11T03:16:53.827Z,1.23
2022-08-11T03:19:53.343Z,1.27
2022-08-11T03:22:39.648Z,1.05
2022-08-11T03:25:13.137Z,1.35
2022-08-11T03:28:10.704Z,2.03
2022-08-11T03:31:08.093Z,1.45
2022-08-11T03:34:07.491Z,2.03
2022-08-11T03:36:59.283Z,1.58
2022-08-11T03:39:34.839Z,1.13
2022-08-11T03:42:25.166Z,1.50
2022-08-11T03:45:04.194Z,1.38
2022-08-11T03:47:52.598Z,1.20
2022-08-11T03:50:42.865Z,1.60
2022-08-11T03:56:03.770Z,1.17
2022-08-11T03:59:11.418Z,1.20
2022-08-11T04:02:06.782Z,1.45
2022-08-11T04:04:50.697Z,1.25
2022-08-11T04:08:12.119Z,1.35
2022-08-11T04:11:07.624Z,1.40
2022-08-11T04:14:24.384Z,1.30
2022-08-11T04:17:07.440Z,1.42
2022-08-11T04:19:45.243Z,1.30
2022-08-11T04:22:52.248Z,1.25
2022-08-11T04:25:21.296Z,1.38
2022-08-11T04:28:45.709Z,1.25
2022-08-11T04:34:46.103Z,1.30
2022-08-11T04:37:35.366Z,1.08
2022-08-11T04:40:22.472Z,1.40
2022-08-11T04:43:29.308Z,1.40
2022-08-11T04:46:22.335Z,1.75
2022-08-11T04:49:37.147Z,1.58
2022-08-11T04:52:39.556Z,1.40
2022-08-11T04:55:38.823Z,1.48
2022-08-11T04:58:30.028Z,1.63
2022-08-11T05:01:42.189Z,2.15
2022-08-11T05:05:00.034Z,1.80
2022-08-11T05:08:07.863Z,1.90
2022-08-11T05:10:58.907Z,1.90
2022-08-11T05:13:51.915Z,1.77
2022-08-11T05:16:45.169Z,2.00
2022-08-11T05:19:38.603Z,1.55
2022-08-11T05:22:29.984Z,2.00
2022-08-11T05:26:44.641Z,2.28
2022-08-11T05:28:54.520Z,1.90
2022-08-11T05:31:52.997Z,1.88
2022-08-11T05:34:55.763Z,1.90
2022-08-11T05:37:30.971Z,1.85
2022-08-11T05:40:27.777Z,2.50
2022-08-11T05:43:20.696Z,1.83
2022-08-11T05:46:19.916Z,2.00
2022-08-11T05:49:08.914Z,2.25
2022-08-11T05:52:05.539Z,1.80
2022-08-11T05:55:06.906Z,1.98
2022-08-11T05:57:50.647Z,1.70
2022-08-11T06:00:21.538Z,1.55
2022-08-11T06:02:56.090Z,1.85
2022-08-11T06:05:45.268Z,2.00
2022-08-11T06:08:15.613Z,3.60
2022-08-11T06:10:46.332Z,1.98
2022-08-11T06:13:19.349Z,2.13
2022-08-11T06:15:50.567Z,1.80
2022-08-11T06:18:21.515Z,1.90
2022-08-11T06:20:56.371Z,2.03
2022-08-11T06:23:32.829Z,1.90
2022-08-11T06:26:13.847Z,1.90
2022-08-11T06:28:47.974Z,1.83
2022-08-11T06:31:27.118Z,2.15
2022-08-11T06:34:42.050Z,2.25
2022-08-11T06:37:36.259Z,1.90
2022-08-11T06:40:29.346Z,1.90
2022-08-11T06:43:26.708Z,1.98
2022-08-11T06:46:09.488Z,1.90
2022-08-11T06:48:41.294Z,2.10
2022-08-11T06:51:14.768Z,2.10
2022-08-11T06:53:57.573Z,2.67
2022-08-11T07:00:05.639Z,1.85
2022-08-11T07:03:10.160Z,2.10
2022-08-11T07:05:47.679Z,2.17
2022-08-11T07:08:37.948Z,2.13
2022-08-11T07:11:39.327Z,2.10
2022-08-11T07:14:27.713Z,2.40
2022-08-11T07:16:59.672Z,2.25
2022-08-11T07:19:50.088Z,2.35
2022-08-11T07:22:42.101Z,2.20
2022-08-11T07:25:43.348Z,2.35
2022-08-11T07:28:41.180Z,2.30
2022-08-11T07:34:06.953Z,2.10
2022-08-11T07:36:43.818Z,2.30
2022-08-11T07:39:21.806Z,2.13
2022-08-11T07:41:53.017Z,2.05
2022-08-11T07:44:30.764Z,2.33
2022-08-11T07:47:21.728Z,1.95
2022-08-11T07:50:13.132Z,2.30
2022-08-11T07:52:42.679Z,2.30
2022-08-11T07:55:19.731Z,2.38
2022-08-11T07:58:15.467Z,2.00
2022-08-11T08:01:21.457Z,1.80
2022-08-11T08:04:10.838Z,2.33
2022-08-11T08:06:59.184Z,2.15
2022-08-11T08:09:48.023Z,1.77
2022-08-11T08:12:35.965Z,2.47
2022-08-11T08:15:26.847Z,2.60
2022-08-11T08:18:09.719Z,2.45
2022-08-11T08:20:50.815Z,1.92
2022-08-11T08:23:34.117Z,2.70
2022-08-11T08:26:26.987Z,2.10
2022-08-11T08:29:17.620Z,2.45
2022-08-11T08:31:49.454Z,2.33
2022-08-11T08:34:19.983Z,2.17
2022-08-11T08:36:51.839Z,2.20
2022-08-11T08:39:22.531Z,2.17
2022-08-11T08:41:55.591Z,2.50
2022-08-11T08:44:44.667Z,2.40
2022-08-11T08:47:41.923Z,2.30
2022-08-11T08:50:20.312Z,2.40
2022-08-11T08:53:06.716Z,2.20
2022-08-11T08:55:36.240Z,2.50
2022-08-11T08:58:05.527Z,2.45
2022-08-11T09:00:45.540Z,2.53
2022-08-11T09:03:39.423Z,2.42
2022-08-11T09:06:05.257Z,1.90
2022-08-11T09:08:36.048Z,1.90
2022-08-11T09:11:24.703Z,2.40
2022-08-11T09:14:06.611Z,2.25
2022-08-11T09:16:38.132Z,2.10
2022-08-11T09:19:09.254Z,2.70
2022-08-11T09:21:49.198Z,2.53
2022-08-11T09:24:38.556Z,2.55
2022-08-11T09:27:09.582Z,2.30
2022-08-11T09:29:39.986Z,2.17
2022-08-11T09:32:09.782Z,2.38
2022-08-11T09:34:40.419Z,2.50
2022-08-11T09:37:55.270Z,2.35
2022-08-11T09:40:30.352Z,2.47
2022-08-11T09:43:21.533Z,2.00
2022-08-11T09:45:55.362Z,2.20
2022-08-11T09:48:31.081Z,2.08
2022-08-11T09:51:03.224Z,2.30
2022-08-11T09:53:40.520Z,2.10
2022-08-11T09:56:38.377Z,2.35
2022-08-11T09:59:08.610Z,2.53
2022-08-11T10:01:47.305Z,2.28
2022-08-11T10:04:23.964Z,2.10
2022-08-11T10:07:04.898Z,1.85
2022-08-11T10:09:37.388Z,2.75
2022-08-11T10:12:12.294Z,2.40
2022-08-11T10:15:13.483Z,2.15
2022-08-11T10:18:08.414Z,2.88
2022-08-11T10:20:40.278Z,2.30
2022-08-11T10:23:29.705Z,2.15
2022-08-11T10:26:17.687Z,2.13
2022-08-11T10:29:11.633Z,2.33
2022-08-11T10:31:58.004Z,1.92
2022-08-11T10:34:29.410Z,2.35
2022-08-11T10:37:03.869Z,2.10
2022-08-11T10:39:33.927Z,2.25
2022-08-11T10:42:35.365Z,2.17
2022-08-11T10:45:32.163Z,2.30
2022-08-11T10:48:02.382Z,2.40
2022-08-11T10:50:50.112Z,2.67
2022-08-11T10:53:39.295Z,2.30
2022-08-11T10:56:27.723Z,2.60
2022-08-11T10:59:03.447Z,2.38
2022-08-11T11:01:36.488Z,2.20
2022-08-11T11:04:37.847Z,2.63
2022-08-11T11:07:18.719Z,2.22
2022-08-11T11:09:56.521Z,2.00
2022-08-11T11:12:57.957Z,2.00
2022-08-11T11:15:48.722Z,2.33
2022-08-11T11:18:36.731Z,2.20
2022-08-11T11:21:10.294Z,2.50
2022-08-11T11:23:48.124Z,2.35
2022-08-11T11:26:57.106Z,1.95
2022-08-11T11:30:07.653Z,2.58
2022-08-11T11:32:36.671Z,2.42
2022-08-11T11:35:11.326Z,2.30
2022-08-11T11:38:03.661Z,2.22
2022-08-11T11:40:32.189Z,2.47
2022-08-11T11:43:02.730Z,2.15
2022-08-11T11:45:32.533Z,2.20
2022-08-11T11:48:03.489Z,2.30
2022-08-11T11:50:35.580Z,2.42
2022-08-11T11:53:09.445Z,2.22
2022-08-11T11:55:39.056Z,2.45
2022-08-11T11:58:27.497Z,2.67
2022-08-11T12:01:16.891Z,2.75
2022-08-11T12:03:48.607Z,2.25
2022-08-11T12:06:20.205Z,2.20
2022-08-11T12:08:52.966Z,2.40
2022-08-11T12:11:43.776Z,2.55
2022-08-11T12:14:16.701Z,2.38
2022-08-11T12:16:48.264Z,2.78
2022-08-11T12:19:35.471Z,2.55
2022-08-11T12:22:24.062Z,2.80
2022-08-11T12:25:11.449Z,2.45
2022-08-11T12:27:42.511Z,2.17
2022-08-11T12:30:12.209Z,2.55
2022-08-11T12:32:42.352Z,2.45
2022-08-11T12:35:12.287Z,3.03
2022-08-11T12:38:03.610Z,2.80
2022-08-11T12:44:07.669Z,2.65
2022-08-11T12:46:41.407Z,2.90
2022-08-11T12:49:45.194Z,2.85
2022-08-11T12:52:22.538Z,2.67
2022-08-11T12:55:03.075Z,2.53
2022-08-11T12:58:04.636Z,2.70
2022-08-11T13:00:52.867Z,3.00
2022-08-11T13:03:41.220Z,2.55
2022-08-11T13:06:11.052Z,2.60
2022-08-11T13:08:42.125Z,2.60
2022-08-11T13:11:56.674Z,2.88
2022-08-11T13:14:28.462Z,2.75
2022-08-11T13:17:16.878Z,2.70
2022-08-11T13:19:49.825Z,2.78
2022-08-11T13:22:21.255Z,2.80
2022-08-11T13:24:52.007Z,2.40
2022-08-11T13:27:21.695Z,2.28
2022-08-11T13:30:12.547Z,2.60
2022-08-11T13:32:43.737Z,2.60
2022-08-11T13:35:24.655Z,2.43
2022-08-11T13:38:18.844Z,2.20
2022-08-11T13:40:55.751Z,2.20
2022-08-11T13:43:26.212Z,2.40
2022-08-11T13:46:16.163Z,2.47
2022-08-11T13:48:45.861Z,2.50
2022-08-11T13:51:35.602Z,2.90
2022-08-11T13:54:18.427Z,2.45
2022-08-11T13:56:53.735Z,2.28
2022-08-11T13:59:31.141Z,2.38
2022-08-11T14:02:21.734Z,2.72
2022-08-11T14:05:04.732Z,2.58
2022-08-11T14:07:39.893Z,2.40
2022-08-11T14:10:12.249Z,2.60
2022-08-11T14:13:06.467Z,2.90
2022-08-11T14:15:37.676Z,2.33
2022-08-11T14:18:24.503Z,2.30
2022-08-11T14:21:19.167Z,2.63
2022-08-11T14:23:51.739Z,2.65
2022-08-11T14:26:29.404Z,2.80
2022-08-11T14:29:07.158Z,2.97
2022-08-11T14:31:40.214Z,3.00
2022-08-11T14:34:15.423Z,3.00
2022-08-11T14:36:53.161Z,3.30
2022-08-11T14:39:31.529Z,2.90
2022-08-11T14:42:23.371Z,3.55
2022-08-11T14:45:17.740Z,3.13
2022-08-11T14:47:54.268Z,3.22
2022-08-11T14:50:26.929Z,3.05
2022-08-11T14:53:04.152Z,3.00
2022-08-11T14:56:01.118Z,3.42
2022-08-11T14:58:34.752Z,2.53
2022-08-11T15:01:25.475Z,3.35
2022-08-11T15:04:34.211Z,2.50
2022-08-11T15:06:45.219Z,3.60
2022-08-11T15:09:14.420Z,3.47
2022-08-11T15:12:03.132Z,3.25
2022-08-11T15:14:56.034Z,3.10
2022-08-11T15:17:43.040Z,3.95
2022-08-11T15:20:35.339Z,4.68
2022-08-11T15:23:24.104Z,3.22
2022-08-11T15:26:50.294Z,3.13
2022-08-11T15:29:43.147Z,3.08
2022-08-11T15:32:36.540Z,3.20
2022-08-11T15:35:24.382Z,3.13
2022-08-11T15:37:57.990Z,3.20
2022-08-11T15:40:49.614Z,3.42
2022-08-11T15:43:59.951Z,3.03
2022-08-11T15:46:36.778Z,2.60
2022-08-11T15:49:22.141Z,2.78
2022-08-11T15:52:02.301Z,2.53
2022-08-11T15:54:34.763Z,2.60
2022-08-11T15:57:06.032Z,2.70
2022-08-11T15:59:56.379Z,2.17
2022-08-11T16:02:46.384Z,2.60
2022-08-11T16:05:45.975Z,2.45
2022-08-11T16:08:10.236Z,2.70
2022-08-11T16:10:44.073Z,2.50
2022-08-11T16:13:31.025Z,2.45
2022-08-11T16:16:19.505Z,2.55
2022-08-11T16:18:58.558Z,2.63
2022-08-11T16:21:41.365Z,2.70
2022-08-11T16:27:04.998Z,2.55
2022-08-11T16:27:13.592Z,2.45
2022-08-11T16:29:47.404Z,2.28
2022-08-11T16:32:27.918Z,2.38
2022-08-11T16:35:22.164Z,2.33
2022-08-11T16:38:11.877Z,2.22
2022-08-11T16:40:42.819Z,2.38
2022-08-11T16:43:34.943Z,2.45
2022-08-11T16:46:24.984Z,2.60
2022-08-11T16:48:56.068Z,2.60
2022-08-11T16:51:25.464Z,2.47
2022-08-11T16:54:05.300Z,2.25
2022-08-11T16:56:40.369Z,2.53
2022-08-11T16:59:31.062Z,2.72
2022-08-11T17:02:00.045Z,2.45
2022-08-11T17:04:55.856Z,2.35
2022-08-11T17:07:47.134Z,2.15
2022-08-11T17:10:57.624Z,2.42
2022-08-11T17:13:41.371Z,2.30
2022-08-11T17:16:13.415Z,2.53
2022-08-11T17:18:45.566Z,2.72
2022-08-11T17:21:20.889Z,2.30
2022-08-11T17:23:55.760Z,2.53
2022-08-11T17:26:59.107Z,2.70
2022-08-11T17:29:54.658Z,2.20
2022-08-11T17:33:09.651Z,2.25
2022-08-11T17:35:42.677Z,2.17
2022-08-11T17:38:15.750Z,2.33
2022-08-11T17:41:10.897Z,2.65
2022-08-11T17:44:09.738Z,2.15
2022-08-11T17:47:05.164Z,2.97
2022-08-11T17:49:38.942Z,2.65
2022-08-11T17:52:33.194Z,2.17
2022-08-11T17:55:52.343Z,2.67
2022-08-11T17:58:34.283Z,2.67
2022-08-11T18:01:09.276Z,2.63
2022-08-11T18:03:41.948Z,3.08
2022-08-11T18:06:33.498Z,2.90
2022-08-11T18:09:27.572Z,2.55
2022-08-11T18:12:16.417Z,2.42
2022-08-11T18:15:07.971Z,2.85
2022-08-11T18:17:56.792Z,2.38
2022-08-11T18:20:44.747Z,2.58
2022-08-11T18:23:46.896Z,2.65
2022-08-11T18:26:41.099Z,2.70
2022-08-11T18:29:31.124Z,3.08
2022-08-11T18:32:49.194Z,2.95
2022-08-11T18:35:39.887Z,3.08
2022-08-11T18:38:35.654Z,2.75
2022-08-11T18:41:25.034Z,3.42
2022-08-11T18:44:15.673Z,2.85
2022-08-11T18:47:08.058Z,3.03
2022-08-11T18:50:02.569Z,2.88
2022-08-11T18:52:56.155Z,2.70
2022-08-11T18:55:44.746Z,2.67
2022-08-11T18:58:36.552Z,3.05
2022-08-11T19:01:26.390Z,3.00
2022-08-11T19:04:17.451Z,2.67
2022-08-11T19:07:14.131Z,2.55
2022-08-11T19:10:05.985Z,2.95
2022-08-11T19:12:59.134Z,2.88
2022-08-11T19:15:48.443Z,2.63
2022-08-11T19:18:40.468Z,2.38
2022-08-11T19:21:29.417Z,3.25
2022-08-11T19:24:20.157Z,2.95
2022-08-11T19:27:12.664Z,2.80
2022-08-11T19:30:07.385Z,2.42
2022-08-11T19:33:02.767Z,2.80
2022-08-11T19:35:54.821Z,2.92
2022-08-11T19:38:43.368Z,3.08
2022-08-11T19:41:56.602Z,2.28
2022-08-11T19:44:43.283Z,2.85
2022-08-11T19:47:31.558Z,3.10
2022-08-11T19:50:24.194Z,3.10
2022-08-11T19:53:17.538Z,2.40
2022-08-11T19:56:12.086Z,2.92
2022-08-11T19:59:01.298Z,2.60
2022-08-11T20:02:04.016Z,2.38
2022-08-11T20:04:59.046Z,2.70
2022-08-11T20:07:51.681Z,2.65
2022-08-11T20:10:41.443Z,2.80
2022-08-11T20:13:31.226Z,2.78
2022-08-11T20:16:19.794Z,3.05
2022-08-11T20:19:09.684Z,2.60
2022-08-11T20:22:00.990Z,2.90
2022-08-11T20:24:54.723Z,2.47
2022-08-11T20:27:46.425Z,2.90
2022-08-11T20:30:37.117Z,2.10
2022-08-11T20:33:25.196Z,2.58
2022-08-11T20:36:14.094Z,2.38
2022-08-11T20:39:03.383Z,2.55
2022-08-11T20:41:59.280Z,2.38
2022-08-11T20:44:47.813Z,2.60
2022-08-11T20:50:46.615Z,2.55
2022-08-11T20:53:39.356Z,2.67
2022-08-11T20:56:30.109Z,2.45
2022-08-11T20:59:23.110Z,2.22
2022-08-11T21:02:11.470Z,2.42
2022-08-11T21:05:00.617Z,2.45
2022-08-11T21:07:56.957Z,2.10
2022-08-11T21:10:51.411Z,2.20
2022-08-11T21:13:43.353Z,3.05
2022-08-11T21:16:39.364Z,2.50
2022-08-11T21:19:59.605Z,2.60
2022-08-11T21:22:59.547Z,2.20
2022-08-11T21:26:14.209Z,2.30
2022-08-11T21:29:02.941Z,2.25
2022-08-11T21:31:52.001Z,2.70
2022-08-11T21:34:43.512Z,2.33
2022-08-11T21:37:32.357Z,2.70
2022-08-11T21:40:23.721Z,2.75
2022-08-11T21:43:13.330Z,2.33
2022-08-11T21:46:02.900Z,2.40
2022-08-11T21:48:51.254Z,2.47
2022-08-11T21:51:38.651Z,2.50
2022-08-11T21:54:32.980Z,2.42
2022-08-11T21:57:21.244Z,2.30
2022-08-11T22:00:14.795Z,2.47
2022-08-11T22:03:06.229Z,2.20
2022-08-11T22:05:56.139Z,2.53
2022-08-11T22:08:43.533Z,2.40
2022-08-11T22:11:32.203Z,2.80
2022-08-11T22:14:21.120Z,2.30
2022-08-11T22:17:09.116Z,2.80
2022-08-11T22:19:59.711Z,2.58
2022-08-11T22:22:53.027Z,2.80
2022-08-11T22:25:55.088Z,2.50
2022-08-11T22:28:49.130Z,2.63
2022-08-11T22:31:36.992Z,2.28
2022-08-11T22:34:26.401Z,2.70
2022-08-11T22:37:27.244Z,2.97
2022-08-11T22:40:17.990Z,2.83
2022-08-11T22:43:05.996Z,2.60
2022-08-11T22:45:53.217Z,2.40
2022-08-11T22:48:41.488Z,2.42
2022-08-11T22:51:29.902Z,2.95
2022-08-11T22:54:18.908Z,2.78
2022-08-11T22:57:07.728Z,3.13
2022-08-11T22:59:56.553Z,3.20
2022-08-11T23:02:47.621Z,2.83
2022-08-11T23:05:36.577Z,2.40
2022-08-11T23:08:24.936Z,2.67
2022-08-11T23:11:12.779Z,2.67
2022-08-11T23:14:01.242Z,3.05
2022-08-11T23:16:50.650Z,2.72
2022-08-11T23:20:08.223Z,2.78
2022-08-11T23:22:50.160Z,2.78
2022-08-11T23:25:38.713Z,3.35
2022-08-11T23:28:29.245Z,2.72
2022-08-11T23:31:18.295Z,3.05
2022-08-11T23:35:02.381Z,3.33
2022-08-11T23:37:20.079Z,2.85
2022-08-11T23:40:07.460Z,3.22
2022-08-11T23:42:59.340Z,3.28
2022-08-11T23:45:46.711Z,3.00
2022-08-11T23:48:36.089Z,2.85
2022-08-11T23:51:25.069Z,2.90
2022-08-11T23:54:34.983Z,3.00
2022-08-11T23:57:25.296Z,3.30
